sensor_id;sensor_type;location;lat;lon;timestamp;P1;durP1;ratioP1;P2;durP2;ratioP2
5880;SDS011;2966;52.598;10.928;2022-09-12T00:02:05;6.87;;;6.20;;
5880;SDS011;2966;52.598;10.928;2022-09-12T00:04:32;7.23;;;6.53;;
5880;SDS011;2966;52.598;10.928;2022-09-12T00:06:59;5.93;;;5.23;;
5880;SDS011;2966;52.598;10.928;2022-09-12T00:09:28;6.90;;;6.30;;
5880;SDS011;2966;52.598;10.928;2022-09-12T00:11:56;5.80;;;5.40;;
5880;SDS011;2966;52.598;10.928;2022-09-12T00:14:25;6.13;;;5.20;;
5880;SDS011;2966;52.598;10.928;2022-09-12T00:16:52;5.70;;;5.10;;
5880;SDS011;2966;52.598;10.928;2022-09-12T00:19:25;6.40;;;5.80;;
5880;SDS011;2966;52.598;10.928;2022-09-12T00:21:53;6.63;;;6.03;;
5880;SDS011;2966;52.598;10.928;2022-09-12T00:24:20;5.57;;;5.07;;
5880;SDS011;2966;52.598;10.928;2022-09-12T00:26:47;5.57;;;5.07;;
5880;SDS011;2966;52.598;10.928;2022-09-12T00:29:16;5.27;;;4.77;;
5880;SDS011;2966;52.598;10.928;2022-09-12T00:31:44;6.50;;;5.80;;
5880;SDS011;2966;52.598;10.928;2022-09-12T00:34:11;6.37;;;5.80;;
5880;SDS011;2966;52.598;10.928;2022-09-12T00:36:39;6.07;;;5.50;;
5880;SDS011;2966;52.598;10.928;2022-09-12T00:39:06;6.33;;;5.80;;
5880;SDS011;2966;52.598;10.928;2022-09-12T00:41:34;6.50;;;5.90;;
5880;SDS011;2966;52.598;10.928;2022-09-12T00:44:38;6.67;;;6.07;;
5880;SDS011;2966;52.598;10.928;2022-09-12T00:47:12;7.37;;;6.77;;
5880;SDS011;2966;52.598;10.928;2022-09-12T00:49:43;7.80;;;5.70;;
5880;SDS011;2966;52.598;10.928;2022-09-12T00:52:15;6.70;;;6.10;;
5880;SDS011;2966;52.598;10.928;2022-09-12T00:54:46;6.50;;;5.37;;
5880;SDS011;2966;52.598;10.928;2022-09-12T00:57:16;6.70;;;5.93;;
5880;SDS011;2966;52.598;10.928;2022-09-12T00:59:48;6.13;;;5.57;;
5880;SDS011;2966;52.598;10.928;2022-09-12T01:02:19;5.10;;;4.60;;
5880;SDS011;2966;52.598;10.928;2022-09-12T01:04:49;5.97;;;5.17;;
5880;SDS011;2966;52.598;10.928;2022-09-12T01:07:16;6.37;;;5.77;;
5880;SDS011;2966;52.598;10.928;2022-09-12T01:09:44;6.63;;;6.03;;
5880;SDS011;2966;52.598;10.928;2022-09-12T01:12:13;6.53;;;5.70;;
5880;SDS011;2966;52.598;10.928;2022-09-12T01:14:43;5.37;;;4.87;;
5880;SDS011;2966;52.598;10.928;2022-09-12T01:17:12;5.53;;;4.90;;
5880;SDS011;2966;52.598;10.928;2022-09-12T01:19:59;7.17;;;6.57;;
5880;SDS011;2966;52.598;10.928;2022-09-12T01:22:52;5.77;;;5.27;;
5880;SDS011;2966;52.598;10.928;2022-09-12T01:25:37;7.10;;;6.50;;
5880;SDS011;2966;52.598;10.928;2022-09-12T01:28:27;6.87;;;6.27;;
5880;SDS011;2966;52.598;10.928;2022-09-12T01:31:14;5.60;;;5.10;;
5880;SDS011;2966;52.598;10.928;2022-09-12T01:33:50;5.63;;;5.23;;
5880;SDS011;2966;52.598;10.928;2022-09-12T01:36:31;6.83;;;6.23;;
5880;SDS011;2966;52.598;10.928;2022-09-12T01:39:04;6.20;;;5.60;;
5880;SDS011;2966;52.598;10.928;2022-09-12T01:41:41;6.13;;;5.43;;
5880;SDS011;2966;52.598;10.928;2022-09-12T01:44:20;6.23;;;5.63;;
5880;SDS011;2966;52.598;10.928;2022-09-12T01:46:55;6.83;;;6.20;;
5880;SDS011;2966;52.598;10.928;2022-09-12T01:49:30;9.90;;;7.13;;
5880;SDS011;2966;52.598;10.928;2022-09-12T01:52:04;6.30;;;5.80;;
5880;SDS011;2966;52.598;10.928;2022-09-12T01:54:41;6.33;;;5.80;;
5880;SDS011;2966;52.598;10.928;2022-09-12T01:57:16;6.13;;;5.60;;
5880;SDS011;2966;52.598;10.928;2022-09-12T01:59:48;6.40;;;5.80;;
5880;SDS011;2966;52.598;10.928;2022-09-12T02:02:21;6.90;;;5.20;;
5880;SDS011;2966;52.598;10.928;2022-09-12T02:04:54;7.17;;;6.30;;
5880;SDS011;2966;52.598;10.928;2022-09-12T02:07:28;8.13;;;6.03;;
5880;SDS011;2966;52.598;10.928;2022-09-12T02:10:03;6.07;;;5.57;;
5880;SDS011;2966;52.598;10.928;2022-09-12T02:12:36;5.67;;;5.17;;
5880;SDS011;2966;52.598;10.928;2022-09-12T02:15:07;5.60;;;5.10;;
5880;SDS011;2966;52.598;10.928;2022-09-12T02:17:40;5.50;;;5.00;;
5880;SDS011;2966;52.598;10.928;2022-09-12T02:20:12;8.23;;;5.67;;
5880;SDS011;2966;52.598;10.928;2022-09-12T02:22:43;5.90;;;5.30;;
5880;SDS011;2966;52.598;10.928;2022-09-12T02:25:14;5.97;;;5.37;;
5880;SDS011;2966;52.598;10.928;2022-09-12T02:27:45;6.90;;;6.00;;
5880;SDS011;2966;52.598;10.928;2022-09-12T02:30:15;6.67;;;5.93;;
5880;SDS011;2966;52.598;10.928;2022-09-12T02:32:48;7.37;;;6.67;;
5880;SDS011;2966;52.598;10.928;2022-09-12T02:35:27;5.67;;;5.13;;
5880;SDS011;2966;52.598;10.928;2022-09-12T02:38:01;7.27;;;4.73;;
5880;SDS011;2966;52.598;10.928;2022-09-12T02:40:32;5.90;;;5.40;;
5880;SDS011;2966;52.598;10.928;2022-09-12T02:42:59;5.83;;;5.23;;
5880;SDS011;2966;52.598;10.928;2022-09-12T02:45:27;5.33;;;4.83;;
5880;SDS011;2966;52.598;10.928;2022-09-12T02:47:58;5.03;;;4.53;;
5880;SDS011;2966;52.598;10.928;2022-09-12T02:50:31;4.80;;;4.40;;
5880;SDS011;2966;52.598;10.928;2022-09-12T02:53:00;7.00;;;5.53;;
5880;SDS011;2966;52.598;10.928;2022-09-12T02:55:30;5.03;;;4.63;;
5880;SDS011;2966;52.598;10.928;2022-09-12T02:57:57;4.77;;;4.37;;
5880;SDS011;2966;52.598;10.928;2022-09-12T03:00:25;6.60;;;4.93;;
5880;SDS011;2966;52.598;10.928;2022-09-12T03:03:00;5.57;;;5.03;;
5880;SDS011;2966;52.598;10.928;2022-09-12T03:05:44;4.93;;;4.43;;
5880;SDS011;2966;52.598;10.928;2022-09-12T03:08:23;5.73;;;5.33;;
5880;SDS011;2966;52.598;10.928;2022-09-12T03:11:07;5.20;;;4.70;;
5880;SDS011;2966;52.598;10.928;2022-09-12T03:13:43;5.50;;;5.00;;
5880;SDS011;2966;52.598;10.928;2022-09-12T03:16:20;6.67;;;5.67;;
5880;SDS011;2966;52.598;10.928;2022-09-12T03:18:57;5.30;;;4.90;;
5880;SDS011;2966;52.598;10.928;2022-09-12T03:21:32;6.77;;;5.90;;
5880;SDS011;2966;52.598;10.928;2022-09-12T03:24:10;4.90;;;4.47;;
5880;SDS011;2966;52.598;10.928;2022-09-12T03:26:41;4.77;;;4.37;;
5880;SDS011;2966;52.598;10.928;2022-09-12T03:29:14;7.47;;;4.87;;
5880;SDS011;2966;52.598;10.928;2022-09-12T03:31:50;4.53;;;4.13;;
5880;SDS011;2966;52.598;10.928;2022-09-12T03:34:19;5.77;;;4.80;;
5880;SDS011;2966;52.598;10.928;2022-09-12T03:36:47;5.90;;;4.60;;
5880;SDS011;2966;52.598;10.928;2022-09-12T03:39:15;5.60;;;4.97;;
5880;SDS011;2966;52.598;10.928;2022-09-12T03:41:47;5.20;;;4.70;;
5880;SDS011;2966;52.598;10.928;2022-09-12T03:44:14;4.93;;;4.47;;
5880;SDS011;2966;52.598;10.928;2022-09-12T03:46:41;5.37;;;4.90;;
5880;SDS011;2966;52.598;10.928;2022-09-12T03:49:11;5.67;;;4.57;;
5880;SDS011;2966;52.598;10.928;2022-09-12T03:51:40;4.77;;;4.37;;
5880;SDS011;2966;52.598;10.928;2022-09-12T03:54:07;4.70;;;4.23;;
5880;SDS011;2966;52.598;10.928;2022-09-12T03:56:36;5.33;;;4.93;;
5880;SDS011;2966;52.598;10.928;2022-09-12T03:59:03;4.87;;;4.37;;
5880;SDS011;2966;52.598;10.928;2022-09-12T04:01:31;6.47;;;5.70;;
5880;SDS011;2966;52.598;10.928;2022-09-12T04:03:58;6.53;;;5.97;;
5880;SDS011;2966;52.598;10.928;2022-09-12T04:06:25;4.60;;;4.20;;
5880;SDS011;2966;52.598;10.928;2022-09-12T04:08:54;5.90;;;5.30;;
5880;SDS011;2966;52.598;10.928;2022-09-12T04:11:21;16.53;;;5.57;;
5880;SDS011;2966;52.598;10.928;2022-09-12T04:13:51;4.53;;;4.23;;
5880;SDS011;2966;52.598;10.928;2022-09-12T04:16:17;5.60;;;5.10;;
5880;SDS011;2966;52.598;10.928;2022-09-12T04:18:44;4.97;;;4.57;;
5880;SDS011;2966;52.598;10.928;2022-09-12T04:21:12;5.40;;;4.90;;
5880;SDS011;2966;52.598;10.928;2022-09-12T04:23:40;7.33;;;5.40;;
5880;SDS011;2966;52.598;10.928;2022-09-12T04:26:08;5.20;;;4.70;;
5880;SDS011;2966;52.598;10.928;2022-09-12T04:28:36;5.97;;;4.40;;
5880;SDS011;2966;52.598;10.928;2022-09-12T04:31:03;4.10;;;3.77;;
5880;SDS011;2966;52.598;10.928;2022-09-12T04:33:33;5.30;;;4.80;;
5880;SDS011;2966;52.598;10.928;2022-09-12T04:36:04;4.73;;;3.50;;
5880;SDS011;2966;52.598;10.928;2022-09-12T04:38:32;4.87;;;4.40;;
5880;SDS011;2966;52.598;10.928;2022-09-12T04:41:06;5.40;;;4.77;;
5880;SDS011;2966;52.598;10.928;2022-09-12T04:43:37;10.37;;;4.47;;
5880;SDS011;2966;52.598;10.928;2022-09-12T04:46:04;5.30;;;4.43;;
5880;SDS011;2966;52.598;10.928;2022-09-12T04:48:33;4.57;;;4.13;;
5880;SDS011;2966;52.598;10.928;2022-09-12T04:51:06;4.90;;;4.40;;
5880;SDS011;2966;52.598;10.928;2022-09-12T04:53:36;10.13;;;5.20;;
5880;SDS011;2966;52.598;10.928;2022-09-12T04:56:03;5.03;;;4.53;;
5880;SDS011;2966;52.598;10.928;2022-09-12T04:58:32;5.20;;;4.70;;
5880;SDS011;2966;52.598;10.928;2022-09-12T05:01:03;4.97;;;4.57;;
5880;SDS011;2966;52.598;10.928;2022-09-12T05:03:31;4.33;;;3.93;;
5880;SDS011;2966;52.598;10.928;2022-09-12T05:05:57;4.57;;;4.27;;
5880;SDS011;2966;52.598;10.928;2022-09-12T05:08:24;5.70;;;4.70;;
5880;SDS011;2966;52.598;10.928;2022-09-12T05:10:51;4.87;;;4.47;;
5880;SDS011;2966;52.598;10.928;2022-09-12T05:13:18;4.80;;;4.40;;
5880;SDS011;2966;52.598;10.928;2022-09-12T05:15:54;6.27;;;5.67;;
5880;SDS011;2966;52.598;10.928;2022-09-12T05:18:22;5.40;;;4.90;;
5880;SDS011;2966;52.598;10.928;2022-09-12T05:20:50;7.70;;;5.40;;
5880;SDS011;2966;52.598;10.928;2022-09-12T05:23:17;5.87;;;5.37;;
5880;SDS011;2966;52.598;10.928;2022-09-12T05:25:48;8.50;;;5.73;;
5880;SDS011;2966;52.598;10.928;2022-09-12T05:28:16;6.93;;;6.10;;
5880;SDS011;2966;52.598;10.928;2022-09-12T05:30:44;8.50;;;6.47;;
5880;SDS011;2966;52.598;10.928;2022-09-12T05:33:13;8.07;;;6.83;;
5880;SDS011;2966;52.598;10.928;2022-09-12T05:35:40;7.90;;;7.10;;
5880;SDS011;2966;52.598;10.928;2022-09-12T05:38:07;9.97;;;7.90;;
5880;SDS011;2966;52.598;10.928;2022-09-12T05:40:34;8.53;;;7.67;;
5880;SDS011;2966;52.598;10.928;2022-09-12T05:43:01;16.80;;;7.70;;
5880;SDS011;2966;52.598;10.928;2022-09-12T05:45:29;8.80;;;7.23;;
5880;SDS011;2966;52.598;10.928;2022-09-12T05:48:01;11.10;;;6.70;;
5880;SDS011;2966;52.598;10.928;2022-09-12T05:50:29;8.63;;;6.73;;
5880;SDS011;2966;52.598;10.928;2022-09-12T05:52:57;7.70;;;6.90;;
5880;SDS011;2966;52.598;10.928;2022-09-12T05:55:24;6.77;;;6.07;;
5880;SDS011;2966;52.598;10.928;2022-09-12T05:57:52;6.60;;;5.90;;
5880;SDS011;2966;52.598;10.928;2022-09-12T06:00:19;13.30;;;7.07;;
5880;SDS011;2966;52.598;10.928;2022-09-12T06:02:50;7.10;;;5.83;;
5880;SDS011;2966;52.598;10.928;2022-09-12T06:05:17;8.00;;;7.20;;
5880;SDS011;2966;52.598;10.928;2022-09-12T06:07:46;9.27;;;6.77;;
5880;SDS011;2966;52.598;10.928;2022-09-12T06:10:13;8.83;;;7.50;;
5880;SDS011;2966;52.598;10.928;2022-09-12T06:12:41;7.47;;;6.13;;
5880;SDS011;2966;52.598;10.928;2022-09-12T06:15:08;8.23;;;6.97;;
5880;SDS011;2966;52.598;10.928;2022-09-12T06:17:35;6.77;;;6.17;;
5880;SDS011;2966;52.598;10.928;2022-09-12T06:20:02;8.80;;;5.57;;
5880;SDS011;2966;52.598;10.928;2022-09-12T06:22:29;7.57;;;6.87;;
5880;SDS011;2966;52.598;10.928;2022-09-12T06:24:57;9.33;;;7.80;;
5880;SDS011;2966;52.598;10.928;2022-09-12T06:27:27;8.63;;;6.63;;
5880;SDS011;2966;52.598;10.928;2022-09-12T06:29:53;8.77;;;7.70;;
5880;SDS011;2966;52.598;10.928;2022-09-12T06:32:20;12.87;;;11.30;;
5880;SDS011;2966;52.598;10.928;2022-09-12T06:34:47;12.20;;;10.90;;
5880;SDS011;2966;52.598;10.928;2022-09-12T06:37:14;10.07;;;8.40;;
5880;SDS011;2966;52.598;10.928;2022-09-12T06:39:42;11.87;;;8.37;;
5880;SDS011;2966;52.598;10.928;2022-09-12T06:42:10;11.70;;;10.17;;
5880;SDS011;2966;52.598;10.928;2022-09-12T06:44:38;11.50;;;8.80;;
5880;SDS011;2966;52.598;10.928;2022-09-12T06:47:06;13.60;;;9.23;;
5880;SDS011;2966;52.598;10.928;2022-09-12T06:49:32;14.30;;;10.10;;
5880;SDS011;2966;52.598;10.928;2022-09-12T06:52:00;11.50;;;9.20;;
5880;SDS011;2966;52.598;10.928;2022-09-12T06:54:27;17.07;;;11.50;;
5880;SDS011;2966;52.598;10.928;2022-09-12T06:56:55;16.90;;;11.47;;
5880;SDS011;2966;52.598;10.928;2022-09-12T06:59:23;17.50;;;12.17;;
5880;SDS011;2966;52.598;10.928;2022-09-12T07:01:50;21.47;;;16.37;;
5880;SDS011;2966;52.598;10.928;2022-09-12T07:04:17;16.97;;;13.20;;
5880;SDS011;2966;52.598;10.928;2022-09-12T07:06:44;18.57;;;12.27;;
5880;SDS011;2966;52.598;10.928;2022-09-12T07:09:12;14.50;;;11.90;;
5880;SDS011;2966;52.598;10.928;2022-09-12T07:11:41;19.20;;;12.17;;
5880;SDS011;2966;52.598;10.928;2022-09-12T07:14:10;17.20;;;12.37;;
5880;SDS011;2966;52.598;10.928;2022-09-12T07:16:40;17.77;;;10.93;;
5880;SDS011;2966;52.598;10.928;2022-09-12T07:19:07;18.00;;;12.73;;
5880;SDS011;2966;52.598;10.928;2022-09-12T07:21:35;18.70;;;13.30;;
5880;SDS011;2966;52.598;10.928;2022-09-12T07:24:04;18.00;;;12.20;;
5880;SDS011;2966;52.598;10.928;2022-09-12T07:26:32;14.90;;;13.30;;
5880;SDS011;2966;52.598;10.928;2022-09-12T07:28:59;14.53;;;11.70;;
5880;SDS011;2966;52.598;10.928;2022-09-12T07:31:26;20.77;;;13.00;;
5880;SDS011;2966;52.598;10.928;2022-09-12T07:33:54;17.43;;;12.67;;
5880;SDS011;2966;52.598;10.928;2022-09-12T07:36:22;17.53;;;13.67;;
5880;SDS011;2966;52.598;10.928;2022-09-12T07:38:52;12.97;;;10.90;;
5880;SDS011;2966;52.598;10.928;2022-09-12T07:41:20;15.40;;;11.93;;
5880;SDS011;2966;52.598;10.928;2022-09-12T07:43:50;14.13;;;11.47;;
5880;SDS011;2966;52.598;10.928;2022-09-12T07:46:18;15.77;;;12.90;;
5880;SDS011;2966;52.598;10.928;2022-09-12T07:48:48;20.53;;;14.10;;
5880;SDS011;2966;52.598;10.928;2022-09-12T07:51:16;17.90;;;14.13;;
5880;SDS011;2966;52.598;10.928;2022-09-12T07:53:43;16.60;;;12.90;;
5880;SDS011;2966;52.598;10.928;2022-09-12T07:56:11;26.37;;;14.97;;
5880;SDS011;2966;52.598;10.928;2022-09-12T07:58:38;20.90;;;12.87;;
5880;SDS011;2966;52.598;10.928;2022-09-12T08:01:07;17.23;;;13.50;;
5880;SDS011;2966;52.598;10.928;2022-09-12T08:03:36;16.50;;;13.90;;
5880;SDS011;2966;52.598;10.928;2022-09-12T08:06:04;21.70;;;13.27;;
5880;SDS011;2966;52.598;10.928;2022-09-12T08:08:33;13.67;;;11.03;;
5880;SDS011;2966;52.598;10.928;2022-09-12T08:11:00;19.37;;;14.40;;
5880;SDS011;2966;52.598;10.928;2022-09-12T08:13:29;17.50;;;13.10;;
5880;SDS011;2966;52.598;10.928;2022-09-12T08:15:56;18.97;;;13.63;;
5880;SDS011;2966;52.598;10.928;2022-09-12T08:18:23;19.67;;;13.43;;
5880;SDS011;2966;52.598;10.928;2022-09-12T08:20:54;17.87;;;13.93;;
5880;SDS011;2966;52.598;10.928;2022-09-12T08:23:22;18.67;;;14.07;;
5880;SDS011;2966;52.598;10.928;2022-09-12T08:25:50;19.03;;;14.00;;
5880;SDS011;2966;52.598;10.928;2022-09-12T08:28:22;19.40;;;12.97;;
5880;SDS011;2966;52.598;10.928;2022-09-12T08:30:49;19.50;;;11.37;;
5880;SDS011;2966;52.598;10.928;2022-09-12T08:33:15;21.50;;;13.20;;
5880;SDS011;2966;52.598;10.928;2022-09-12T08:35:42;15.40;;;12.20;;
5880;SDS011;2966;52.598;10.928;2022-09-12T08:38:09;25.77;;;14.17;;
5880;SDS011;2966;52.598;10.928;2022-09-12T08:40:39;22.47;;;17.90;;
5880;SDS011;2966;52.598;10.928;2022-09-12T08:43:15;19.30;;;14.13;;
5880;SDS011;2966;52.598;10.928;2022-09-12T08:45:57;19.43;;;13.80;;
5880;SDS011;2966;52.598;10.928;2022-09-12T08:48:30;15.70;;;11.50;;
5880;SDS011;2966;52.598;10.928;2022-09-12T08:50:57;15.93;;;12.20;;
5880;SDS011;2966;52.598;10.928;2022-09-12T08:53:25;13.03;;;11.50;;
5880;SDS011;2966;52.598;10.928;2022-09-12T08:55:55;15.50;;;11.13;;
5880;SDS011;2966;52.598;10.928;2022-09-12T08:58:26;11.70;;;10.50;;
5880;SDS011;2966;52.598;10.928;2022-09-12T09:00:56;18.63;;;11.57;;
5880;SDS011;2966;52.598;10.928;2022-09-12T09:06:25;10.93;;;9.67;;
5880;SDS011;2966;52.598;10.928;2022-09-12T09:09:07;13.87;;;10.63;;
5880;SDS011;2966;52.598;10.928;2022-09-12T09:11:44;13.47;;;11.07;;
5880;SDS011;2966;52.598;10.928;2022-09-12T09:14:30;14.37;;;9.77;;
5880;SDS011;2966;52.598;10.928;2022-09-12T09:17:17;13.00;;;10.97;;
5880;SDS011;2966;52.598;10.928;2022-09-12T09:19:48;14.60;;;10.90;;
5880;SDS011;2966;52.598;10.928;2022-09-12T09:22:23;9.37;;;8.40;;
5880;SDS011;2966;52.598;10.928;2022-09-12T09:24:57;12.53;;;9.33;;
5880;SDS011;2966;52.598;10.928;2022-09-12T09:27:28;12.57;;;8.00;;
5880;SDS011;2966;52.598;10.928;2022-09-12T09:29:59;6.57;;;5.93;;
5880;SDS011;2966;52.598;10.928;2022-09-12T09:32:27;8.33;;;7.17;;
5880;SDS011;2966;52.598;10.928;2022-09-12T09:34:59;8.57;;;6.40;;
5880;SDS011;2966;52.598;10.928;2022-09-12T09:37:28;6.53;;;5.30;;
5880;SDS011;2966;52.598;10.928;2022-09-12T09:40:05;5.40;;;4.90;;
5880;SDS011;2966;52.598;10.928;2022-09-12T09:42:43;7.17;;;5.80;;
5880;SDS011;2966;52.598;10.928;2022-09-12T09:45:17;7.50;;;6.67;;
5880;SDS011;2966;52.598;10.928;2022-09-12T09:47:48;11.20;;;6.03;;
5880;SDS011;2966;52.598;10.928;2022-09-12T09:50:19;5.43;;;4.90;;
5880;SDS011;2966;52.598;10.928;2022-09-12T09:52:46;9.20;;;6.27;;
5880;SDS011;2966;52.598;10.928;2022-09-12T09:55:15;7.73;;;5.60;;
5880;SDS011;2966;52.598;10.928;2022-09-12T09:57:48;9.70;;;6.43;;
5880;SDS011;2966;52.598;10.928;2022-09-12T10:00:25;7.77;;;6.47;;
5880;SDS011;2966;52.598;10.928;2022-09-12T10:02:59;6.87;;;5.80;;
5880;SDS011;2966;52.598;10.928;2022-09-12T10:05:29;6.33;;;5.40;;
5880;SDS011;2966;52.598;10.928;2022-09-12T10:07:58;4.70;;;4.30;;
5880;SDS011;2966;52.598;10.928;2022-09-12T10:10:25;6.30;;;4.70;;
5880;SDS011;2966;52.598;10.928;2022-09-12T10:12:57;4.93;;;3.70;;
5880;SDS011;2966;52.598;10.928;2022-09-12T10:15:34;4.03;;;3.67;;
5880;SDS011;2966;52.598;10.928;2022-09-12T10:18:04;3.90;;;3.60;;
5880;SDS011;2966;52.598;10.928;2022-09-12T10:20:32;4.60;;;4.20;;
5880;SDS011;2966;52.598;10.928;2022-09-12T10:23:01;3.20;;;2.90;;
5880;SDS011;2966;52.598;10.928;2022-09-12T10:25:45;3.43;;;2.77;;
5880;SDS011;2966;52.598;10.928;2022-09-12T10:28:22;5.70;;;4.10;;
5880;SDS011;2966;52.598;10.928;2022-09-12T10:30:56;4.60;;;3.50;;
5880;SDS011;2966;52.598;10.928;2022-09-12T10:33:26;9.10;;;5.07;;
5880;SDS011;2966;52.598;10.928;2022-09-12T10:35:54;28.70;;;4.90;;
5880;SDS011;2966;52.598;10.928;2022-09-12T10:38:22;2.00;;;1.90;;
5880;SDS011;2966;52.598;10.928;2022-09-12T10:40:55;4.00;;;3.23;;
5880;SDS011;2966;52.598;10.928;2022-09-12T10:43:25;1.93;;;1.83;;
5880;SDS011;2966;52.598;10.928;2022-09-12T10:45:57;4.13;;;2.33;;
5880;SDS011;2966;52.598;10.928;2022-09-12T10:48:26;2.40;;;2.20;;
5880;SDS011;2966;52.598;10.928;2022-09-12T10:50:55;3.23;;;2.93;;
5880;SDS011;2966;52.598;10.928;2022-09-12T10:53:23;3.63;;;3.13;;
5880;SDS011;2966;52.598;10.928;2022-09-12T10:55:58;3.30;;;2.30;;
5880;SDS011;2966;52.598;10.928;2022-09-12T10:58:38;2.83;;;2.63;;
5880;SDS011;2966;52.598;10.928;2022-09-12T11:01:15;2.20;;;2.10;;
5880;SDS011;2966;52.598;10.928;2022-09-12T11:04:09;1.70;;;1.60;;
5880;SDS011;2966;52.598;10.928;2022-09-12T11:06:48;1.53;;;1.43;;
5880;SDS011;2966;52.598;10.928;2022-09-12T11:09:21;3.43;;;3.13;;
5880;SDS011;2966;52.598;10.928;2022-09-12T11:11:57;3.13;;;2.80;;
5880;SDS011;2966;52.598;10.928;2022-09-12T11:14:40;3.93;;;2.97;;
5880;SDS011;2966;52.598;10.928;2022-09-12T11:17:24;4.33;;;3.67;;
5880;SDS011;2966;52.598;10.928;2022-09-12T11:20:13;4.07;;;3.33;;
5880;SDS011;2966;52.598;10.928;2022-09-12T11:23:04;2.47;;;2.20;;
5880;SDS011;2966;52.598;10.928;2022-09-12T11:26:01;2.53;;;1.93;;
5880;SDS011;2966;52.598;10.928;2022-09-12T11:28:42;3.43;;;2.10;;
5880;SDS011;2966;52.598;10.928;2022-09-12T11:31:35;1.60;;;1.33;;
5880;SDS011;2966;52.598;10.928;2022-09-12T11:34:16;3.10;;;2.23;;
5880;SDS011;2966;52.598;10.928;2022-09-12T11:36:59;2.00;;;1.80;;
5880;SDS011;2966;52.598;10.928;2022-09-12T11:39:34;2.60;;;2.00;;
5880;SDS011;2966;52.598;10.928;2022-09-12T11:42:05;1.90;;;1.80;;
5880;SDS011;2966;52.598;10.928;2022-09-12T11:44:38;2.10;;;2.00;;
5880;SDS011;2966;52.598;10.928;2022-09-12T11:47:09;4.60;;;1.90;;
5880;SDS011;2966;52.598;10.928;2022-09-12T11:49:40;3.63;;;2.13;;
5880;SDS011;2966;52.598;10.928;2022-09-12T11:52:12;5.63;;;3.50;;
5880;SDS011;2966;52.598;10.928;2022-09-12T11:54:41;2.70;;;2.50;;
5880;SDS011;2966;52.598;10.928;2022-09-12T11:57:13;2.40;;;2.20;;
5880;SDS011;2966;52.598;10.928;2022-09-12T11:59:45;2.67;;;2.33;;
5880;SDS011;2966;52.598;10.928;2022-09-12T12:02:19;3.13;;;2.57;;
5880;SDS011;2966;52.598;10.928;2022-09-12T12:05:03;2.10;;;2.00;;
5880;SDS011;2966;52.598;10.928;2022-09-12T12:07:49;3.30;;;2.40;;
5880;SDS011;2966;52.598;10.928;2022-09-12T12:10:22;2.17;;;2.07;;
5880;SDS011;2966;52.598;10.928;2022-09-12T12:12:50;2.50;;;2.30;;
5880;SDS011;2966;52.598;10.928;2022-09-12T12:15:20;4.17;;;2.47;;
5880;SDS011;2966;52.598;10.928;2022-09-12T12:17:58;2.23;;;2.13;;
5880;SDS011;2966;52.598;10.928;2022-09-12T12:20:28;3.30;;;3.00;;
5880;SDS011;2966;52.598;10.928;2022-09-12T12:22:54;2.77;;;2.57;;
5880;SDS011;2966;52.598;10.928;2022-09-12T12:25:23;2.30;;;2.20;;
5880;SDS011;2966;52.598;10.928;2022-09-12T12:28:01;3.97;;;2.87;;
5880;SDS011;2966;52.598;10.928;2022-09-12T12:36:32;2.93;;;2.73;;
5880;SDS011;2966;52.598;10.928;2022-09-12T12:45:46;2.40;;;2.20;;
5880;SDS011;2966;52.598;10.928;2022-09-12T12:48:25;2.20;;;2.00;;
5880;SDS011;2966;52.598;10.928;2022-09-12T12:53:43;3.00;;;2.80;;
5880;SDS011;2966;52.598;10.928;2022-09-12T12:56:24;3.90;;;2.10;;
5880;SDS011;2966;52.598;10.928;2022-09-12T12:58:56;2.47;;;2.30;;
5880;SDS011;2966;52.598;10.928;2022-09-12T13:01:25;3.00;;;2.60;;
5880;SDS011;2966;52.598;10.928;2022-09-12T13:03:53;2.30;;;2.10;;
5880;SDS011;2966;52.598;10.928;2022-09-12T13:06:27;2.20;;;2.00;;
5880;SDS011;2966;52.598;10.928;2022-09-12T13:08:59;2.83;;;2.50;;
5880;SDS011;2966;52.598;10.928;2022-09-12T13:11:31;2.00;;;1.80;;
5880;SDS011;2966;52.598;10.928;2022-09-12T13:14:00;3.23;;;2.47;;
5880;SDS011;2966;52.598;10.928;2022-09-12T13:16:29;3.17;;;2.83;;
5880;SDS011;2966;52.598;10.928;2022-09-12T13:18:59;2.27;;;2.17;;
5880;SDS011;2966;52.598;10.928;2022-09-12T13:21:28;4.50;;;2.87;;
5880;SDS011;2966;52.598;10.928;2022-09-12T13:24:00;3.60;;;3.30;;
5880;SDS011;2966;52.598;10.928;2022-09-12T13:26:31;3.13;;;2.70;;
5880;SDS011;2966;52.598;10.928;2022-09-12T13:29:09;3.97;;;2.80;;
5880;SDS011;2966;52.598;10.928;2022-09-12T13:31:41;3.57;;;2.70;;
5880;SDS011;2966;52.598;10.928;2022-09-12T13:34:12;3.80;;;2.60;;
5880;SDS011;2966;52.598;10.928;2022-09-12T13:36:55;2.90;;;2.63;;
5880;SDS011;2966;52.598;10.928;2022-09-12T13:39:40;2.67;;;2.47;;
5880;SDS011;2966;52.598;10.928;2022-09-12T13:45:04;2.50;;;2.27;;
5880;SDS011;2966;52.598;10.928;2022-09-12T13:47:37;2.80;;;2.60;;
5880;SDS011;2966;52.598;10.928;2022-09-12T13:50:06;2.27;;;2.07;;
5880;SDS011;2966;52.598;10.928;2022-09-12T13:52:39;2.87;;;2.60;;
5880;SDS011;2966;52.598;10.928;2022-09-12T13:55:17;2.97;;;2.77;;
5880;SDS011;2966;52.598;10.928;2022-09-12T13:57:55;3.20;;;2.90;;
5880;SDS011;2966;52.598;10.928;2022-09-12T14:00:23;7.33;;;4.30;;
5880;SDS011;2966;52.598;10.928;2022-09-12T14:02:50;3.43;;;3.23;;
5880;SDS011;2966;52.598;10.928;2022-09-12T14:05:38;3.03;;;2.80;;
5880;SDS011;2966;52.598;10.928;2022-09-12T14:08:08;3.03;;;2.70;;
5880;SDS011;2966;52.598;10.928;2022-09-12T14:10:41;3.03;;;2.73;;
5880;SDS011;2966;52.598;10.928;2022-09-12T14:13:18;2.10;;;2.00;;
5880;SDS011;2966;52.598;10.928;2022-09-12T14:15:50;3.50;;;3.20;;
5880;SDS011;2966;52.598;10.928;2022-09-12T14:18:20;2.90;;;2.60;;
5880;SDS011;2966;52.598;10.928;2022-09-12T14:20:49;3.20;;;3.00;;
5880;SDS011;2966;52.598;10.928;2022-09-12T14:23:29;5.40;;;2.97;;
5880;SDS011;2966;52.598;10.928;2022-09-12T14:26:02;2.67;;;2.47;;
5880;SDS011;2966;52.598;10.928;2022-09-12T14:28:32;2.87;;;2.67;;
5880;SDS011;2966;52.598;10.928;2022-09-12T14:31:01;3.07;;;2.87;;
5880;SDS011;2966;52.598;10.928;2022-09-12T14:33:31;3.10;;;2.90;;
5880;SDS011;2966;52.598;10.928;2022-09-12T14:36:07;2.80;;;2.60;;
5880;SDS011;2966;52.598;10.928;2022-09-12T14:38:37;2.47;;;2.27;;
5880;SDS011;2966;52.598;10.928;2022-09-12T14:41:09;2.90;;;2.70;;
5880;SDS011;2966;52.598;10.928;2022-09-12T14:43:39;4.57;;;3.13;;
5880;SDS011;2966;52.598;10.928;2022-09-12T14:46:13;2.90;;;2.63;;
5880;SDS011;2966;52.598;10.928;2022-09-12T14:48:45;3.10;;;2.90;;
5880;SDS011;2966;52.598;10.928;2022-09-12T14:51:17;6.00;;;4.30;;
5880;SDS011;2966;52.598;10.928;2022-09-12T14:53:46;11.33;;;4.47;;
5880;SDS011;2966;52.598;10.928;2022-09-12T14:56:15;3.53;;;3.23;;
5880;SDS011;2966;52.598;10.928;2022-09-12T14:58:45;2.77;;;2.57;;
5880;SDS011;2966;52.598;10.928;2022-09-12T15:01:22;4.60;;;2.70;;
5880;SDS011;2966;52.598;10.928;2022-09-12T15:03:53;2.97;;;2.77;;
5880;SDS011;2966;52.598;10.928;2022-09-12T15:06:23;2.93;;;2.70;;
5880;SDS011;2966;52.598;10.928;2022-09-12T15:08:53;2.63;;;2.43;;
5880;SDS011;2966;52.598;10.928;2022-09-12T15:11:22;2.80;;;2.60;;
5880;SDS011;2966;52.598;10.928;2022-09-12T15:13:49;3.87;;;2.57;;
5880;SDS011;2966;52.598;10.928;2022-09-12T15:16:16;3.27;;;2.97;;
5880;SDS011;2966;52.598;10.928;2022-09-12T15:18:42;4.17;;;3.77;;
5880;SDS011;2966;52.598;10.928;2022-09-12T15:21:11;4.40;;;3.77;;
5880;SDS011;2966;52.598;10.928;2022-09-12T15:23:44;3.10;;;2.80;;
5880;SDS011;2966;52.598;10.928;2022-09-12T15:26:13;3.37;;;2.93;;
5880;SDS011;2966;52.598;10.928;2022-09-12T15:28:45;3.63;;;3.33;;
5880;SDS011;2966;52.598;10.928;2022-09-12T15:31:19;3.57;;;3.23;;
5880;SDS011;2966;52.598;10.928;2022-09-12T15:33:49;5.00;;;3.13;;
5880;SDS011;2966;52.598;10.928;2022-09-12T15:36:19;3.23;;;3.03;;
5880;SDS011;2966;52.598;10.928;2022-09-12T15:38:50;3.40;;;3.20;;
5880;SDS011;2966;52.598;10.928;2022-09-12T15:41:18;3.37;;;2.83;;
5880;SDS011;2966;52.598;10.928;2022-09-12T15:43:48;5.20;;;3.33;;